Time;durP1;ratioP1;P1;durP2;ratioP2;P2;SDS_P1;SDS_P2;PMS_P1;PMS_P2;Temp;Humidity;BMP_temperature;BMP_pressure;BME280_temperature;BME280_humidity;BME280_pressure;Samples;Min_cycle;Max_cycle;Signal;HPM_P1;HPM_P2
2021/05/15 00:00:29;;;;;;;;;;;18.50;49.40;;;;;;461259;258;1073;-46
2021/05/15 00:02:31;;;;;;;;;;;18.40;49.70;;;;;;461114;258;1221;-46
2021/05/15 00:04:32;;;;;;;;;;;18.40;49.80;;;;;;461475;258;2187;-46
2021/05/15 00:06:34;;;;;;;;;;;18.30;49.90;;;;;;461155;258;1391;-46
2021/05/15 00:08:34;;;;;;;;;;;18.30;50.10;;;;;;461221;258;2031;-46
2021/05/15 00:10:36;;;;;;;;;;;18.30;50.20;;;;;;461239;258;1195;-46
2021/05/15 00:12:37;;;;;;;;;;;18.20;50.20;;;;;;461184;258;1234;-46
2021/05/15 00:14:38;;;;;;;;;;;18.20;50.40;;;;;;461462;258;1050;-46
2021/05/15 00:16:40;;;;;;;;;;;18.10;50.50;;;;;;461172;258;1307;-46
2021/05/15 00:18:41;;;;;;;;;;;18.10;50.60;;;;;;461135;258;1077;-46
2021/05/15 00:20:42;;;;;;;;;;;18.10;50.60;;;;;;461140;258;1533;-46
2021/05/15 00:22:43;;;;;;;;;;;18.00;50.70;;;;;;461150;258;1653;-46
2021/05/15 00:24:45;;;;;;;;;;;18.00;50.80;;;;;;461102;258;2153;-46
2021/05/15 00:26:46;;;;;;;;;;;17.90;50.90;;;;;;461156;258;1467;-46
2021/05/15 00:28:47;;;;;;;;;;;17.90;50.90;;;;;;461216;258;1035;-46
2021/05/15 00:30:49;;;;;;;;;;;18.00;50.90;;;;;;461233;258;1474;-46
2021/05/15 00:32:50;;;;;;;;;;;18.00;50.90;;;;;;461114;258;1490;-46
2021/05/15 00:34:51;;;;;;;;;;;17.90;50.90;;;;;;461259;258;1087;-46
2021/05/15 00:36:52;;;;;;;;;;;17.90;51.00;;;;;;461197;258;1283;-46
2021/05/15 00:38:54;;;;;;;;;;;17.90;50.90;;;;;;461313;258;1105;-46
2021/05/15 00:40:55;;;;;;;;;;;17.90;51.10;;;;;;461208;258;1263;-46
2021/05/15 00:42:56;;;;;;;;;;;17.90;51.10;;;;;;461211;258;1111;-46
2021/05/15 00:44:57;;;;;;;;;;;17.80;51.10;;;;;;461065;258;2216;-46
2021/05/15 00:46:59;;;;;;;;;;;17.80;51.10;;;;;;461034;258;1249;-46
2021/05/15 00:49:00;;;;;;;;;;;17.80;51.10;;;;;;461209;258;1106;-46
2021/05/15 00:51:02;;;;;;;;;;;17.80;51.20;;;;;;461170;258;1206;-46
2021/05/15 00:53:03;;;;;;;;;;;17.80;51.00;;;;;;461238;258;1098;-46
2021/05/15 00:55:04;;;;;;;;;;;17.80;51.10;;;;;;461176;258;1393;-46
2021/05/15 00:57:05;;;;;;;;;;;17.80;51.20;;;;;;461233;258;1066;-46
2021/05/15 00:59:07;;;;;;;;;;;17.80;51.20;;;;;;461242;258;1042;-46
2021/05/15 01:01:08;;;;;;;;;;;17.70;51.30;;;;;;461626;258;1377;-46
2021/05/15 01:03:10;;;;;;;;;;;17.70;51.30;;;;;;461151;258;1091;-46
2021/05/15 01:05:10;;;;;;;;;;;17.70;51.30;;;;;;461204;258;2216;-46
2021/05/15 01:07:12;;;;;;;;;;;17.70;51.30;;;;;;461212;258;1124;-46
2021/05/15 01:09:13;;;;;;;;;;;17.70;51.30;;;;;;461087;258;1095;-46
2021/05/15 01:11:14;;;;;;;;;;;17.70;51.40;;;;;;461241;258;1325;-45
2021/05/15 01:13:16;;;;;;;;;;;17.70;51.40;;;;;;461232;258;1110;-46
2021/05/15 01:15:17;;;;;;;;;;;17.70;51.40;;;;;;461274;258;1081;-46
2021/05/15 01:17:18;;;;;;;;;;;17.70;51.30;;;;;;461090;258;1133;-46
2021/05/15 01:19:19;;;;;;;;;;;17.70;51.20;;;;;;461200;258;1082;-46
2021/05/15 01:21:21;;;;;;;;;;;17.70;51.20;;;;;;461367;258;1064;-46
2021/05/15 01:23:22;;;;;;;;;;;17.60;51.40;;;;;;461477;258;1271;-46
2021/05/15 01:25:23;;;;;;;;;;;17.60;51.40;;;;;;461193;258;1176;-46
2021/05/15 01:27:25;;;;;;;;;;;17.60;51.40;;;;;;461303;258;1086;-46
2021/05/15 01:29:26;;;;;;;;;;;17.60;51.40;;;;;;461568;258;1047;-46
2021/05/15 01:31:27;;;;;;;;;;;17.60;51.40;;;;;;461480;258;1062;-46
2021/05/15 01:33:28;;;;;;;;;;;17.60;51.50;;;;;;461221;258;1112;-46
2021/05/15 01:35:30;;;;;;;;;;;17.60;51.50;;;;;;461399;258;1207;-46
2021/05/15 01:37:31;;;;;;;;;;;17.60;51.50;;;;;;461251;258;1045;-45
2021/05/15 01:39:33;;;;;;;;;;;17.50;51.60;;;;;;461149;258;1284;-46
2021/05/15 01:41:34;;;;;;;;;;;17.50;51.60;;;;;;461230;258;1526;-46
2021/05/15 01:43:35;;;;;;;;;;;17.60;51.60;;;;;;461337;258;2188;-46
2021/05/15 01:45:36;;;;;;;;;;;17.50;51.60;;;;;;461141;258;1147;-46
2021/05/15 01:47:38;;;;;;;;;;;17.50;51.50;;;;;;461318;258;1214;-46
2021/05/15 01:49:39;;;;;;;;;;;17.60;51.50;;;;;;461519;258;1153;-46
2021/05/15 01:51:40;;;;;;;;;;;17.60;51.40;;;;;;461187;258;1458;-46
2021/05/15 01:53:42;;;;;;;;;;;17.60;51.40;;;;;;461312;258;1113;-46
2021/05/15 01:55:43;;;;;;;;;;;17.60;51.40;;;;;;461603;258;1374;-46
2021/05/15 01:57:44;;;;;;;;;;;17.60;51.40;;;;;;461114;258;1202;-46
2021/05/15 01:59:45;;;;;;;;;;;17.50;51.40;;;;;;461189;258;1128;-46
2021/05/15 02:01:47;;;;;;;;;;;17.50;51.40;;;;;;461195;258;1780;-46
2021/05/15 02:03:48;;;;;;;;;;;17.50;51.60;;;;;;461125;258;2201;-46
2021/05/15 02:05:50;;;;;;;;;;;17.50;51.50;;;;;;461295;258;1174;-46
2021/05/15 02:07:51;;;;;;;;;;;17.50;51.40;;;;;;461053;258;1197;-46
2021/05/15 02:09:52;;;;;;;;;;;17.50;51.60;;;;;;461366;258;1090;-46
2021/05/15 02:11:54;;;;;;;;;;;17.70;51.30;;;;;;461106;258;1446;-46
2021/05/15 02:13:55;;;;;;;;;;;18.10;50.20;;;;;;461309;258;1047;-46
2021/05/15 02:15:56;;;;;;;;;;;18.40;49.10;;;;;;461203;258;1224;-46
2021/05/15 02:17:58;;;;;;;;;;;18.70;48.40;;;;;;461394;258;1103;-46
2021/05/15 02:19:59;;;;;;;;;;;18.90;47.90;;;;;;461555;258;1114;-46
2021/05/15 02:22:00;;;;;;;;;;;19.00;47.50;;;;;;461568;258;1321;-46
2021/05/15 02:24:01;;;;;;;;;;;19.20;47.20;;;;;;461261;258;2216;-46
2021/05/15 02:26:03;;;;;;;;;;;19.20;47.00;;;;;;461264;258;1186;-46
2021/05/15 02:28:04;;;;;;;;;;;19.30;46.80;;;;;;461102;258;1198;-46
2021/05/15 02:30:05;;;;;;;;;;;19.40;46.70;;;;;;461210;258;1157;-46
2021/05/15 02:32:06;;;;;;;;;;;19.40;46.50;;;;;;461032;258;1332;-46
2021/05/15 02:34:08;;;;;;;;;;;19.50;46.40;;;;;;461086;258;1080;-46
2021/05/15 02:36:09;;;;;;;;;;;19.50;46.20;;;;;;461485;258;1249;-46
2021/05/15 02:38:10;;;;;;;;;;;19.60;46.20;;;;;;461503;258;1106;-46
2021/05/15 02:40:12;;;;;;;;;;;19.60;46.00;;;;;;461526;258;1073;-46
2021/05/15 02:42:13;;;;;;;;;;;19.60;46.00;;;;;;461316;258;1521;-46
2021/05/15 02:44:14;;;;;;;;;;;19.70;45.90;;;;;;461208;258;2165;-46
2021/05/15 02:46:16;;;;;;;;;;;19.70;45.80;;;;;;461373;258;1196;-46
2021/05/15 02:48:17;;;;;;;;;;;19.80;45.80;;;;;;461265;258;1281;-46
2021/05/15 02:50:18;;;;;;;;;;;19.80;45.70;;;;;;461238;258;1263;-46
2021/05/15 02:52:19;;;;;;;;;;;19.80;45.60;;;;;;461109;258;1227;-46
2021/05/15 02:54:21;;;;;;;;;;;19.90;45.60;;;;;;461098;258;1234;-46
2021/05/15 02:56:22;;;;;;;;;;;19.90;45.50;;;;;;461184;258;1171;-46
2021/05/15 02:58:23;;;;;;;;;;;19.90;45.50;;;;;;461023;258;1186;-46
2021/05/15 03:00:25;;;;;;;;;;;19.90;45.50;;;;;;461340;258;1091;-46
2021/05/15 03:02:26;;;;;;;;;;;20.00;45.50;;;;;;461119;258;1259;-46
2021/05/15 03:04:27;;;;;;;;;;;20.00;45.50;;;;;;461303;258;2145;-46
2021/05/15 03:06:28;;;;;;;;;;;20.00;45.30;;;;;;461130;258;1243;-46
2021/05/15 03:08:30;;;;;;;;;;;20.00;45.30;;;;;;461293;258;1108;-46
2021/05/15 03:10:31;;;;;;;;;;;20.10;45.30;;;;;;461216;258;1102;-46
2021/05/15 03:12:32;;;;;;;;;;;20.10;45.20;;;;;;461113;258;1210;-46
2021/05/15 03:14:34;;;;;;;;;;;20.10;45.10;;;;;;461373;258;1147;-46
2021/05/15 03:16:35;;;;;;;;;;;20.10;45.00;;;;;;461293;258;1215;-46
2021/05/15 03:18:36;;;;;;;;;;;20.20;45.10;;;;;;461174;258;1098;-46
2021/05/15 03:20:37;;;;;;;;;;;20.20;45.00;;;;;;461385;258;1091;-46
2021/05/15 03:22:39;;;;;;;;;;;20.20;45.00;;;;;;461119;258;1188;-46
2021/05/15 03:24:40;;;;;;;;;;;20.20;44.90;;;;;;461533;258;2136;-46
2021/05/15 03:26:41;;;;;;;;;;;20.30;44.90;;;;;;461258;258;1249;-46
2021/05/15 03:28:43;;;;;;;;;;;20.30;44.80;;;;;;461099;258;1208;-46
2021/05/15 03:30:44;;;;;;;;;;;20.30;44.80;;;;;;461254;258;1072;-46
2021/05/15 03:32:45;;;;;;;;;;;20.30;44.90;;;;;;461500;258;1216;-46
2021/05/15 03:34:47;;;;;;;;;;;20.30;44.80;;;;;;461614;258;1012;-46
2021/05/15 03:36:48;;;;;;;;;;;20.40;44.80;;;;;;461635;258;1433;-46
2021/05/15 03:38:49;;;;;;;;;;;20.40;44.80;;;;;;461426;258;1266;-46
2021/05/15 03:40:51;;;;;;;;;;;20.40;44.70;;;;;;461448;258;1070;-46
2021/05/15 03:42:55;;;;;;;;;;;20.40;44.60;;;;;;461192;258;1213;-46
2021/05/15 03:44:55;;;;;;;;;;;20.40;44.50;;;;;;461518;258;2316;-46
2021/05/15 03:46:56;;;;;;;;;;;20.40;44.50;;;;;;461248;258;1218;-46
2021/05/15 03:48:57;;;;;;;;;;;20.50;44.60;;;;;;461130;258;1121;-46
2021/05/15 03:50:59;;;;;;;;;;;20.50;44.50;;;;;;461406;258;1103;-46
2021/05/15 03:53:00;;;;;;;;;;;20.50;44.40;;;;;;461073;258;1113;-46
2021/05/15 03:55:01;;;;;;;;;;;20.50;44.40;;;;;;461136;258;1052;-46
2021/05/15 03:57:03;;;;;;;;;;;20.50;44.50;;;;;;461302;258;1169;-46
2021/05/15 03:59:04;;;;;;;;;;;20.60;44.50;;;;;;461306;258;1206;-46
2021/05/15 04:01:05;;;;;;;;;;;20.50;44.40;;;;;;461213;258;1231;-46
2021/05/15 04:03:06;;;;;;;;;;;20.60;44.40;;;;;;461326;258;1125;-46
2021/05/15 04:05:08;;;;;;;;;;;20.60;44.40;;;;;;461316;258;2208;-46
2021/05/15 04:07:09;;;;;;;;;;;20.60;44.30;;;;;;461187;258;1100;-46
2021/05/15 04:09:10;;;;;;;;;;;20.60;44.40;;;;;;461358;258;1113;-46
2021/05/15 04:11:11;;;;;;;;;;;20.60;44.30;;;;;;461194;258;1263;-46
2021/05/15 04:13:21;;;;;;;;;;;20.60;44.30;;;;;;461294;258;1322;-46
2021/05/15 04:15:34;;;;;;;;;;;20.60;44.30;;;;;;461161;258;2173;-46
2021/05/15 04:17:27;;;;;;;;;;;20.60;44.30;;;;;;460344;258;2079;-46
2021/05/15 04:19:23;;;;;;;;;;;20.60;44.30;;;;;;460820;258;2248;-46
2021/05/15 04:21:25;;;;;;;;;;;20.60;44.50;;;;;;461071;258;1068;-46
2021/05/15 04:23:26;;;;;;;;;;;20.70;44.20;;;;;;461294;258;1057;-46
2021/05/15 04:25:27;;;;;;;;;;;20.50;44.60;;;;;;461191;258;2204;-46
2021/05/15 04:27:28;;;;;;;;;;;20.00;45.50;;;;;;461416;258;1057;-46
2021/05/15 04:29:30;;;;;;;;;;;19.60;46.70;;;;;;461195;258;1242;-46
2021/05/15 04:31:31;;;;;;;;;;;19.30;47.50;;;;;;461158;258;1116;-46
2021/05/15 04:33:32;;;;;;;;;;;19.10;48.10;;;;;;461558;258;1133;-46
2021/05/15 04:35:34;;;;;;;;;;;18.90;48.50;;;;;;461498;258;1093;-46
2021/05/15 04:37:35;;;;;;;;;;;18.80;48.70;;;;;;461146;258;1107;-46
2021/05/15 04:39:36;;;;;;;;;;;18.70;49.00;;;;;;461287;258;1060;-46
2021/05/15 04:41:38;;;;;;;;;;;18.60;49.30;;;;;;461109;258;1081;-46
2021/05/15 04:43:39;;;;;;;;;;;18.50;49.60;;;;;;461345;258;1346;-45
2021/05/15 04:45:40;;;;;;;;;;;18.40;49.80;;;;;;461079;258;2212;-46
2021/05/15 04:47:42;;;;;;;;;;;18.40;50.10;;;;;;461198;258;1126;-46
2021/05/15 04:49:43;;;;;;;;;;;18.30;50.20;;;;;;461164;258;1141;-46
2021/05/15 04:51:44;;;;;;;;;;;18.20;50.30;;;;;;461185;258;1073;-46
2021/05/15 04:53:45;;;;;;;;;;;18.20;50.30;;;;;;461262;258;1094;-46
2021/05/15 04:55:47;;;;;;;;;;;18.30;50.30;;;;;;461293;258;1105;-46
2021/05/15 04:57:50;;;;;;;;;;;18.20;50.20;;;;;;461267;258;1064;-46
2021/05/15 04:59:51;;;;;;;;;;;18.20;50.50;;;;;;461217;258;1231;-46
2021/05/15 05:01:52;;;;;;;;;;;18.20;50.50;;;;;;461212;258;1035;-46
2021/05/15 05:03:54;;;;;;;;;;;18.20;50.40;;;;;;461455;258;1102;-46
2021/05/15 05:05:55;;;;;;;;;;;18.20;50.40;;;;;;461192;258;2149;-46
2021/05/15 05:07:56;;;;;;;;;;;18.10;50.60;;;;;;461108;258;1290;-46
2021/05/15 05:09:57;;;;;;;;;;;18.10;50.70;;;;;;461096;258;1099;-46
2021/05/15 05:11:59;;;;;;;;;;;18.10;50.60;;;;;;461074;258;1257;-46
2021/05/15 05:14:00;;;;;;;;;;;18.00;50.80;;;;;;461060;258;1158;-46
2021/05/15 05:16:01;;;;;;;;;;;18.00;50.90;;;;;;461045;258;1137;-46
2021/05/15 05:18:03;;;;;;;;;;;18.10;50.70;;;;;;461214;258;1114;-46
2021/05/15 05:20:04;;;;;;;;;;;18.00;50.70;;;;;;461275;258;1117;-46
2021/05/15 05:22:05;;;;;;;;;;;18.10;50.70;;;;;;461340;258;1169;-46
2021/05/15 05:24:06;;;;;;;;;;;18.00;50.70;;;;;;461537;258;1283;-46
2021/05/15 05:26:08;;;;;;;;;;;18.00;50.80;;;;;;461215;258;2208;-45
2021/05/15 05:28:09;;;;;;;;;;;18.00;50.80;;;;;;461302;258;1050;-46
2021/05/15 05:30:10;;;;;;;;;;;17.90;50.90;;;;;;461207;258;1283;-46
2021/05/15 05:32:11;;;;;;;;;;;17.90;50.80;;;;;;461294;258;1176;-46
2021/05/15 05:34:13;;;;;;;;;;;17.90;51.00;;;;;;461097;258;1176;-46
2021/05/15 05:36:14;;;;;;;;;;;17.80;51.10;;;;;;461087;258;1169;-45
2021/05/15 05:38:15;;;;;;;;;;;17.80;51.10;;;;;;461328;258;1163;-46
2021/05/15 05:40:17;;;;;;;;;;;17.80;51.40;;;;;;461239;258;1092;-45
2021/05/15 05:42:18;;;;;;;;;;;17.80;51.40;;;;;;461179;258;1347;-46
2021/05/15 05:44:19;;;;;;;;;;;17.80;51.20;;;;;;461146;258;1136;-46
2021/05/15 05:46:21;;;;;;;;;;;17.80;51.10;;;;;;461101;258;2200;-46
2021/05/15 05:48:22;;;;;;;;;;;17.90;51.10;;;;;;461274;258;1208;-46
2021/05/15 05:50:23;;;;;;;;;;;17.80;51.00;;;;;;461523;258;1047;-46
2021/05/15 05:52:24;;;;;;;;;;;17.80;51.30;;;;;;461235;258;1554;-46
2021/05/15 05:54:26;;;;;;;;;;;17.70;51.30;;;;;;461186;258;1069;-46
2021/05/15 05:56:27;;;;;;;;;;;17.70;51.40;;;;;;461274;258;1270;-46
2021/05/15 05:58:28;;;;;;;;;;;17.70;51.50;;;;;;461365;258;1199;-46
2021/05/15 06:00:30;;;;;;;;;;;17.70;51.30;;;;;;461160;258;1196;-46
2021/05/15 06:02:31;;;;;;;;;;;17.70;51.40;;;;;;460939;258;1205;-46
2021/05/15 06:04:32;;;;;;;;;;;17.70;51.50;;;;;;461154;258;1215;-46
2021/05/15 06:06:34;;;;;;;;;;;17.60;51.50;;;;;;461073;258;2204;-46
2021/05/15 06:08:35;;;;;;;;;;;17.60;51.60;;;;;;461061;258;1099;-46
2021/05/15 06:10:37;;;;;;;;;;;17.60;51.60;;;;;;460932;258;1766;-46
2021/05/15 06:12:38;;;;;;;;;;;17.60;51.60;;;;;;461062;258;2201;-46
2021/05/15 06:14:40;;;;;;;;;;;17.60;51.70;;;;;;461059;258;1070;-46
2021/05/15 06:16:40;;;;;;;;;;;17.60;51.70;;;;;;461011;258;1888;-46
2021/05/15 06:18:42;;;;;;;;;;;17.60;51.60;;;;;;461224;258;1065;-46
2021/05/15 06:20:43;;;;;;;;;;;17.60;51.50;;;;;;461246;258;1512;-46
2021/05/15 06:22:44;;;;;;;;;;;17.60;51.50;;;;;;461051;258;1631;-45
2021/05/15 06:24:46;;;;;;;;;;;17.60;51.60;;;;;;461105;258;1061;-46
2021/05/15 06:26:47;;;;;;;;;;;17.50;51.60;;;;;;460998;258;2207;-46
2021/05/15 06:28:49;;;;;;;;;;;17.50;51.60;;;;;;461210;258;1105;-46
2021/05/15 06:30:50;;;;;;;;;;;17.60;51.60;;;;;;461063;258;1256;-46
2021/05/15 06:32:51;;;;;;;;;;;17.50;51.60;;;;;;460966;258;1175;-46
2021/05/15 06:34:52;;;;;;;;;;;17.60;51.50;;;;;;461272;258;1032;-46
2021/05/15 06:36:54;;;;;;;;;;;17.60;51.60;;;;;;461110;258;1365;-46
2021/05/15 06:38:55;;;;;;;;;;;17.50;51.60;;;;;;461028;258;1087;-46
2021/05/15 06:40:56;;;;;;;;;;;17.50;51.60;;;;;;461217;258;1662;-46
2021/05/15 06:42:57;;;;;;;;;;;17.50;51.50;;;;;;461197;258;1254;-46
2021/05/15 06:44:59;;;;;;;;;;;17.50;51.50;;;;;;461080;258;1123;-46
2021/05/15 06:47:00;;;;;;;;;;;17.60;51.40;;;;;;461022;258;2224;-46
2021/05/15 06:49:03;;;;;;;;;;;17.90;50.70;;;;;;461313;258;1080;-46
2021/05/15 06:51:04;;;;;;;;;;;18.30;49.70;;;;;;461398;258;1336;-46
2021/05/15 06:53:05;;;;;;;;;;;18.60;48.80;;;;;;461132;258;1110;-46
2021/05/15 06:55:06;;;;;;;;;;;18.80;48.30;;;;;;461303;258;1097;-46
2021/05/15 06:57:08;;;;;;;;;;;18.90;47.90;;;;;;461098;258;1163;-46
2021/05/15 06:59:09;;;;;;;;;;;19.10;47.50;;;;;;461017;258;1128;-46
2021/05/15 07:01:10;;;;;;;;;;;19.20;47.20;;;;;;461090;258;1277;-46
2021/05/15 07:03:12;;;;;;;;;;;19.30;47.00;;;;;;461072;258;1059;-46
2021/05/15 07:05:13;;;;;;;;;;;19.30;46.90;;;;;;461157;258;1075;-46
2021/05/15 07:07:14;;;;;;;;;;;19.40;46.80;;;;;;461004;258;2208;-46
2021/05/15 07:09:15;;;;;;;;;;;19.40;46.60;;;;;;461026;258;1089;-46
2021/05/15 07:11:17;;;;;;;;;;;19.50;46.40;;;;;;461223;258;1226;-46
2021/05/15 07:13:18;;;;;;;;;;;19.50;46.40;;;;;;461129;258;1220;-46
2021/05/15 07:15:20;;;;;;;;;;;19.60;46.30;;;;;;461216;258;1117;-46
2021/05/15 07:17:25;;;;;;;;;;;19.60;46.30;;;;;;461140;258;1152;-46
2021/05/15 07:19:23;;;;;;;;;;;19.60;46.10;;;;;;460894;258;2110;-46
2021/05/15 07:21:24;;;;;;;;;;;19.70;46.00;;;;;;460980;258;1263;-46
2021/05/15 07:23:25;;;;;;;;;;;19.80;45.90;;;;;;460999;258;1105;-46
2021/05/15 07:25:27;;;;;;;;;;;19.80;45.80;;;;;;461021;258;2149;-46
2021/05/15 07:27:29;;;;;;;;;;;19.80;45.80;;;;;;460996;258;1700;-46
2021/05/15 07:29:30;;;;;;;;;;;19.80;45.70;;;;;;461140;258;2159;-46
2021/05/15 07:31:31;;;;;;;;;;;19.90;45.70;;;;;;461064;258;1726;-46
2021/05/15 07:33:32;;;;;;;;;;;19.90;45.60;;;;;;461127;258;1068;-46
2021/05/15 07:35:33;;;;;;;;;;;19.90;45.60;;;;;;461046;258;1132;-46
2021/05/15 07:37:35;;;;;;;;;;;20.00;45.50;;;;;;460941;258;1534;-46
2021/05/15 07:39:36;;;;;;;;;;;20.00;45.50;;;;;;461083;258;1087;-46
2021/05/15 07:41:37;;;;;;;;;;;20.00;45.50;;;;;;461203;258;1190;-46
2021/05/15 07:43:39;;;;;;;;;;;20.00;45.50;;;;;;461098;258;1309;-46
2021/05/15 07:45:40;;;;;;;;;;;20.00;45.50;;;;;;461440;258;2141;-46
2021/05/15 07:47:41;;;;;;;;;;;20.00;45.40;;;;;;461016;258;1199;-46
2021/05/15 07:49:43;;;;;;;;;;;20.10;45.40;;;;;;461117;258;1077;-46
2021/05/15 07:51:44;;;;;;;;;;;20.10;45.30;;;;;;461360;258;1226;-46
2021/05/15 07:53:46;;;;;;;;;;;20.10;45.20;;;;;;461280;258;1276;-46
2021/05/15 07:55:49;;;;;;;;;;;20.20;45.30;;;;;;461046;258;1191;-46
2021/05/15 07:57:48;;;;;;;;;;;20.20;45.20;;;;;;460994;259;2025;-46
2021/05/15 07:59:49;;;;;;;;;;;20.20;45.20;;;;;;461279;258;1101;-46
2021/05/15 08:01:51;;;;;;;;;;;20.20;45.20;;;;;;461287;258;1150;-46
2021/05/15 08:03:52;;;;;;;;;;;20.20;45.20;;;;;;461414;258;1174;-46
2021/05/15 08:05:53;;;;;;;;;;;20.20;45.10;;;;;;461234;258;2138;-46
2021/05/15 08:07:55;;;;;;;;;;;20.20;45.00;;;;;;461325;258;1053;-46
2021/05/15 08:09:56;;;;;;;;;;;20.20;45.00;;;;;;461149;258;1058;-46
2021/05/15 08:11:58;;;;;;;;;;;20.20;45.00;;;;;;461069;258;1265;-46
2021/05/15 08:13:59;;;;;;;;;;;20.30;45.00;;;;;;461035;258;1127;-46
2021/05/15 08:16:00;;;;;;;;;;;20.30;44.90;;;;;;461170;258;1284;-46
2021/05/15 08:18:01;;;;;;;;;;;20.30;44.90;;;;;;461043;258;1179;-46
2021/05/15 08:20:03;;;;;;;;;;;20.30;44.90;;;;;;461207;258;1071;-46
2021/05/15 08:22:04;;;;;;;;;;;20.40;44.90;;;;;;460999;258;1215;-46
2021/05/15 08:24:05;;;;;;;;;;;20.40;44.80;;;;;;461155;258;1091;-46
2021/05/15 08:26:06;;;;;;;;;;;20.40;44.80;;;;;;461147;258;2161;-46
2021/05/15 08:28:11;;;;;;;;;;;20.40;44.80;;;;;;461044;258;1056;-46
2021/05/15 08:30:10;;;;;;;;;;;20.40;44.70;;;;;;461055;258;1919;-46
2021/05/15 08:32:11;;;;;;;;;;;20.50;44.70;;;;;;461030;258;1213;-46
2021/05/15 08:34:12;;;;;;;;;;;20.40;44.60;;;;;;461216;258;1097;-46
2021/05/15 08:36:14;;;;;;;;;;;20.40;44.60;;;;;;461105;258;1138;-46
2021/05/15 08:38:15;;;;;;;;;;;20.50;44.70;;;;;;461111;258;1076;-46
2021/05/15 08:40:16;;;;;;;;;;;20.50;44.60;;;;;;461093;258;1062;-46
2021/05/15 08:42:17;;;;;;;;;;;20.50;44.60;;;;;;461286;258;1337;-46
2021/05/15 08:44:19;;;;;;;;;;;20.50;44.60;;;;;;461045;258;1145;-46
2021/05/15 08:46:20;;;;;;;;;;;20.50;44.60;;;;;;461327;258;2140;-46
2021/05/15 08:48:21;;;;;;;;;;;20.60;44.70;;;;;;461149;258;1120;-46
2021/05/15 08:50:23;;;;;;;;;;;20.60;44.60;;;;;;461442;258;1109;-46
2021/05/15 08:52:24;;;;;;;;;;;20.60;44.60;;;;;;461156;258;1220;-46
2021/05/15 08:54:25;;;;;;;;;;;20.50;44.50;;;;;;461257;258;1066;-46
2021/05/15 08:56:26;;;;;;;;;;;20.60;44.50;;;;;;461216;258;1267;-46
2021/05/15 08:58:28;;;;;;;;;;;20.60;44.50;;;;;;461209;258;1102;-46
2021/05/15 09:00:29;;;;;;;;;;;20.70;44.40;;;;;;461212;258;1091;-46
2021/05/15 09:02:30;;;;;;;;;;;20.30;45.10;;;;;;461131;258;1121;-46
2021/05/15 09:04:32;;;;;;;;;;;19.80;46.30;;;;;;461052;258;1214;-46
2021/05/15 09:06:33;;;;;;;;;;;19.40;47.20;;;;;;460976;258;2216;-46
2021/05/15 09:08:34;;;;;;;;;;;19.20;47.90;;;;;;461158;258;1175;-45
2021/05/15 09:10:36;;;;;;;;;;;19.00;48.50;;;;;;461057;258;1135;-46
2021/05/15 09:12:37;;;;;;;;;;;18.80;48.80;;;;;;461212;258;1159;-46
2021/05/15 09:14:38;;;;;;;;;;;18.70;49.20;;;;;;461241;258;1077;-46
2021/05/15 09:16:39;;;;;;;;;;;18.60;49.40;;;;;;461223;258;1433;-46
2021/05/15 09:18:41;;;;;;;;;;;18.50;49.70;;;;;;461106;258;1314;-46
2021/05/15 09:20:42;;;;;;;;;;;18.40;49.80;;;;;;461302;258;1269;-46
2021/05/15 09:22:43;;;;;;;;;;;18.40;49.80;;;;;;461158;258;1243;-45
2021/05/15 09:24:44;;;;;;;;;;;18.40;49.90;;;;;;461328;258;1335;-46
2021/05/15 09:26:46;;;;;;;;;;;18.40;50.00;;;;;;461067;258;2192;-46
2021/05/15 09:28:47;;;;;;;;;;;18.30;50.20;;;;;;461083;258;1111;-46
2021/05/15 09:30:48;;;;;;;;;;;18.30;50.30;;;;;;461236;258;1218;-46
2021/05/15 09:32:50;;;;;;;;;;;18.20;50.40;;;;;;460904;258;1379;-46
2021/05/15 09:34:51;;;;;;;;;;;18.20;50.40;;;;;;461063;258;1204;-46
2021/05/15 09:36:53;;;;;;;;;;;18.30;50.30;;;;;;461172;258;1219;-46
2021/05/15 09:38:53;;;;;;;;;;;18.20;50.40;;;;;;461095;258;1445;-46
2021/05/15 09:40:55;;;;;;;;;;;18.00;50.60;;;;;;461138;258;1339;-46
2021/05/15 09:42:56;;;;;;;;;;;18.00;50.80;;;;;;461077;258;1096;-46
2021/05/15 09:44:57;;;;;;;;;;;18.10;50.70;;;;;;461238;258;1089;-46
2021/05/15 09:46:59;;;;;;;;;;;18.10;50.60;;;;;;461171;258;2208;-46
2021/05/15 09:49:00;;;;;;;;;;;18.10;50.70;;;;;;461240;258;1172;-46
2021/05/15 09:51:02;;;;;;;;;;;18.10;50.80;;;;;;461059;258;1259;-46
2021/05/15 09:53:02;;;;;;;;;;;18.00;50.80;;;;;;461085;258;1949;-46
2021/05/15 09:55:04;;;;;;;;;;;18.00;51.00;;;;;;461109;258;1129;-46
2021/05/15 09:57:06;;;;;;;;;;;17.90;51.00;;;;;;461095;258;1178;-46
2021/05/15 09:59:06;;;;;;;;;;;17.90;51.10;;;;;;461061;258;1964;-46
2021/05/15 10:01:08;;;;;;;;;;;17.90;51.10;;;;;;461202;258;1273;-46
2021/05/15 10:03:09;;;;;;;;;;;17.90;50.90;;;;;;461033;258;1091;-46
2021/05/15 10:05:11;;;;;;;;;;;17.90;51.00;;;;;;461160;258;1245;-46
2021/05/15 10:07:12;;;;;;;;;;;17.90;51.10;;;;;;461254;258;2133;-46
2021/05/15 10:09:13;;;;;;;;;;;17.90;50.90;;;;;;461033;258;1079;-46
2021/05/15 10:11:15;;;;;;;;;;;17.90;50.90;;;;;;461524;258;1207;-46
2021/05/15 10:13:16;;;;;;;;;;;17.90;51.00;;;;;;461191;258;1382;-46
2021/05/15 10:15:17;;;;;;;;;;;17.90;51.10;;;;;;461407;258;1100;-46
2021/05/15 10:17:18;;;;;;;;;;;17.80;51.20;;;;;;461087;258;1321;-46
2021/05/15 10:19:20;;;;;;;;;;;17.80;51.30;;;;;;461173;258;1185;-46
2021/05/15 10:21:21;;;;;;;;;;;17.80;51.30;;;;;;461206;258;1317;-46
2021/05/15 10:23:22;;;;;;;;;;;17.80;51.20;;;;;;461286;258;1144;-46
2021/05/15 10:25:24;;;;;;;;;;;17.80;51.30;;;;;;461070;258;1102;-46
2021/05/15 10:27:25;;;;;;;;;;;17.70;51.30;;;;;;461187;258;2204;-46
2021/05/15 10:29:26;;;;;;;;;;;17.70;51.40;;;;;;461121;258;1197;-46
2021/05/15 10:31:27;;;;;;;;;;;17.70;51.50;;;;;;461038;258;1364;-46
2021/05/15 10:33:29;;;;;;;;;;;17.70;51.50;;;;;;461001;258;1103;-46
2021/05/15 10:35:30;;;;;;;;;;;17.70;51.40;;;;;;461192;258;1195;-46
2021/05/15 10:37:31;;;;;;;;;;;17.70;51.50;;;;;;461304;258;1190;-46
2021/05/15 10:39:33;;;;;;;;;;;17.70;51.40;;;;;;461359;258;1083;-46
2021/05/15 10:41:34;;;;;;;;;;;17.80;51.20;;;;;;461040;258;1194;-46
2021/05/15 10:43:35;;;;;;;;;;;17.80;51.20;;;;;;461320;258;1055;-46
2021/05/15 10:45:37;;;;;;;;;;;17.70;51.30;;;;;;461174;258;1181;-46
2021/05/15 10:47:38;;;;;;;;;;;17.60;51.40;;;;;;461019;258;2161;-46
2021/05/15 10:49:40;;;;;;;;;;;17.70;51.50;;;;;;461101;258;1142;-46
2021/05/15 10:51:41;;;;;;;;;;;17.60;51.50;;;;;;461234;258;1350;-46
2021/05/15 10:53:42;;;;;;;;;;;17.70;51.40;;;;;;461040;258;1099;-46
2021/05/15 10:55:43;;;;;;;;;;;17.70;51.30;;;;;;461094;258;1533;-46
2021/05/15 10:57:45;;;;;;;;;;;17.70;51.40;;;;;;461066;258;1158;-46
2021/05/15 10:59:46;;;;;;;;;;;17.60;51.40;;;;;;461147;258;1111;-46
2021/05/15 11:01:47;;;;;;;;;;;17.60;51.40;;;;;;460967;258;1703;-46
2021/05/15 11:03:48;;;;;;;;;;;17.60;51.60;;;;;;461480;258;1057;-46
2021/05/15 11:05:50;;;;;;;;;;;17.60;51.50;;;;;;461086;258;1208;-46
2021/05/15 11:07:51;;;;;;;;;;;17.60;51.50;;;;;;461298;258;2153;-46
2021/05/15 11:09:52;;;;;;;;;;;17.50;51.60;;;;;;461092;258;1350;-46
2021/05/15 11:11:54;;;;;;;;;;;17.50;51.60;;;;;;461203;258;1154;-46
2021/05/15 11:13:55;;;;;;;;;;;17.60;51.50;;;;;;461301;258;1078;-46
2021/05/15 11:15:56;;;;;;;;;;;17.60;51.40;;;;;;461146;258;1053;-46
2021/05/15 11:17:58;;;;;;;;;;;17.60;51.30;;;;;;461079;258;1066;-46
2021/05/15 11:19:59;;;;;;;;;;;17.60;51.40;;;;;;461068;258;1274;-46
2021/05/15 11:22:00;;;;;;;;;;;17.70;51.10;;;;;;461003;258;1162;-46
2021/05/15 11:24:02;;;;;;;;;;;18.00;50.30;;;;;;461079;258;1127;-46
2021/05/15 11:26:04;;;;;;;;;;;18.40;49.20;;;;;;461071;258;1150;-46
2021/05/15 11:28:06;;;;;;;;;;;18.70;48.60;;;;;;461085;258;2207;-46
2021/05/15 11:30:06;;;;;;;;;;;18.90;48.00;;;;;;461210;258;1590;-46
2021/05/15 11:32:07;;;;;;;;;;;19.00;47.60;;;;;;461048;258;1266;-46
2021/05/15 11:34:08;;;;;;;;;;;19.20;47.30;;;;;;461168;258;1118;-46
2021/05/15 11:36:10;;;;;;;;;;;19.30;47.10;;;;;;461269;258;1308;-46
2021/05/15 11:38:11;;;;;;;;;;;19.30;46.90;;;;;;461506;258;1096;-46
2021/05/15 11:40:12;;;;;;;;;;;19.40;46.90;;;;;;461138;258;1073;-46
2021/05/15 11:42:14;;;;;;;;;;;19.40;46.70;;;;;;461060;258;1228;-46
2021/05/15 11:44:15;;;;;;;;;;;19.40;46.60;;;;;;461087;258;1561;-46
2021/05/15 11:46:17;;;;;;;;;;;19.50;46.50;;;;;;461043;258;1385;-46
2021/05/15 11:48:20;;;;;;;;;;;19.50;46.40;;;;;;461214;258;2207;-46
2021/05/15 11:50:21;;;;;;;;;;;19.60;46.30;;;;;;461235;258;1287;-46
2021/05/15 11:52:22;;;;;;;;;;;19.60;46.20;;;;;;461074;258;1192;-46
2021/05/15 11:54:23;;;;;;;;;;;19.70;46.00;;;;;;461025;258;1084;-46
2021/05/15 11:56:26;;;;;;;;;;;19.70;45.90;;;;;;461207;258;1202;-46